Time;durP1;ratioP1;P1;durP2;ratioP2;P2;SDS_P1;SDS_P2;PMS_P1;PMS_P2;Temp;Humidity;BMP_temperature;BMP_pressure;BME280_temperature;BME280_humidity;BME280_pressure;Samples;Min_cycle;Max_cycle;Signal;HPM_P1;HPM_P2
2021/06/23 00:01:18;;;;;;;9.23;3.13;;;22.50;74.50;;;;;;5119988;28;20016;-73
2021/06/23 00:03:45;;;;;;;9.23;2.28;;;22.50;74.80;;;;;;5120300;28;20034;-73
2021/06/23 00:06:11;;;;;;;8.88;2.70;;;22.40;74.90;;;;;;5119838;28;20023;-73
2021/06/23 00:08:37;;;;;;;11.32;3.13;;;22.40;75.00;;;;;;5120131;28;20108;-73
2021/06/23 00:11:05;;;;;;;9.77;2.70;;;22.30;76.00;;;;;;5120155;28;20048;-73
2021/06/23 00:13:33;;;;;;;11.27;2.63;;;22.10;76.90;;;;;;5120100;28;20039;-73
2021/06/23 00:16:00;;;;;;;15.48;3.22;;;22.00;78.10;;;;;;5120012;28;20099;-73
2021/06/23 00:18:26;;;;;;;12.63;3.70;;;21.80;78.90;;;;;;5119590;28;20425;-73
2021/06/23 00:20:52;;;;;;;19.55;4.13;;;21.70;79.60;;;;;;5119924;28;20019;-73
2021/06/23 00:23:17;;;;;;;12.75;4.05;;;21.80;80.80;;;;;;5119845;28;20030;-73
2021/06/23 00:25:43;;;;;;;14.25;4.18;;;21.80;81.20;;;;;;5119545;28;20428;-73
2021/06/23 00:28:09;;;;;;;14.75;4.07;;;21.80;81.40;;;;;;5119523;28;20030;-73
2021/06/23 00:30:34;;;;;;;26.27;7.03;;;21.90;82.10;;;;;;5101448;28;20025;-73
2021/06/23 00:33:06;;;;;;;10.40;3.28;;;22.00;81.80;;;;;;5119385;28;20059;-73
2021/06/23 00:35:32;;;;;;;13.18;3.38;;;22.00;79.60;;;;;;5098752;28;20115;-73
2021/06/23 00:37:58;;;;;;;18.77;3.05;;;22.00;78.90;;;;;;5098881;28;20400;-73
2021/06/23 00:40:25;;;;;;;10.10;2.85;;;22.10;74.90;;;;;;5078516;28;20060;-73
2021/06/23 00:42:52;;;;;;;8.80;2.55;;;22.20;73.40;;;;;;5078775;28;20025;-73
2021/06/23 00:45:20;;;;;;;13.85;3.35;;;22.40;72.80;;;;;;5078508;28;20379;-73
2021/06/23 00:47:47;;;;;;;10.32;2.55;;;22.50;71.60;;;;;;5078480;28;20424;-73
2021/06/23 00:50:15;;;;;;;12.52;2.50;;;22.50;71.00;;;;;;5078728;28;20367;-73
2021/06/23 00:52:41;;;;;;;10.85;2.65;;;22.60;70.60;;;;;;5078336;28;20028;-73
2021/06/23 00:55:08;;;;;;;9.10;2.40;;;22.60;70.30;;;;;;5078300;28;20032;-73
2021/06/23 00:57:34;;;;;;;11.00;2.13;;;22.70;70.20;;;;;;5078569;28;20020;-73
2021/06/23 01:00:00;;;;;;;9.52;2.20;;;22.70;69.50;;;;;;5078433;28;20403;-73
2021/06/23 01:02:27;;;;;;;7.70;2.40;;;22.80;69.10;;;;;;5078427;28;20021;-73
2021/06/23 01:04:54;;;;;;;6.78;2.13;;;22.80;68.80;;;;;;5078105;28;20028;-73
2021/06/23 01:07:21;;;;;;;18.42;2.40;;;22.90;68.40;;;;;;5078336;28;20021;-73
2021/06/23 01:09:47;;;;;;;8.73;2.22;;;22.90;68.30;;;;;;5078304;28;20324;-73
2021/06/23 01:12:28;;;;;;;5.03;1.80;;;22.90;68.20;;;;;;5078214;28;20025;-73
2021/06/23 01:14:59;;;;;;;11.82;2.00;;;23.00;68.10;;;;;;5078386;28;20036;-73
2021/06/23 01:17:28;;;;;;;10.23;2.90;;;23.00;67.90;;;;;;5077861;28;20430;-72
2021/06/23 01:20:07;;;;;;;8.13;2.35;;;23.10;68.20;;;;;;5077752;28;20038;-72
2021/06/23 01:22:36;;;;;;;8.93;2.42;;;23.10;67.50;;;;;;5078042;28;20278;-72
2021/06/23 01:25:02;;;;;;;7.03;1.90;;;23.10;67.90;;;;;;5077920;28;20044;-72
2021/06/23 01:27:28;;;;;;;10.32;2.38;;;23.10;67.50;;;;;;5077999;28;20048;-72
2021/06/23 01:29:54;;;;;;;6.82;2.17;;;23.10;67.30;;;;;;5077599;28;20063;-73
2021/06/23 01:32:19;;;;;;;11.27;1.90;;;23.10;67.70;;;;;;5077826;28;20108;-73
2021/06/23 01:34:45;;;;;;;10.48;2.25;;;23.10;67.40;;;;;;5098780;28;20044;-73
2021/06/23 01:37:11;;;;;;;10.23;2.05;;;23.10;67.50;;;;;;5118417;28;20027;-73
2021/06/23 01:39:36;;;;;;;10.07;2.00;;;23.10;67.10;;;;;;5118036;28;20324;-73
2021/06/23 01:42:02;;;;;;;8.45;2.33;;;23.10;66.80;;;;;;5118060;28;20026;-73
2021/06/23 01:44:29;;;;;;;10.25;1.92;;;23.20;67.30;;;;;;5100148;28;20020;-72
2021/06/23 01:46:57;;;;;;;11.02;2.30;;;23.20;67.10;;;;;;5117616;28;20427;-73
2021/06/23 01:49:25;;;;;;;6.68;1.80;;;23.20;67.10;;;;;;5118220;28;20024;-73
2021/06/23 01:51:51;;;;;;;5.68;2.10;;;23.20;67.20;;;;;;5118166;28;20032;-72
2021/06/23 01:54:17;;;;;;;8.50;2.17;;;23.20;66.60;;;;;;5118132;28;20348;-73
2021/06/23 01:56:43;;;;;;;9.05;2.90;;;23.20;66.70;;;;;;5118029;28;20027;-73
2021/06/23 01:59:09;;;;;;;8.75;2.58;;;23.30;66.80;;;;;;5117974;28;20084;-73
2021/06/23 02:02:03;;;;;;;9.00;1.95;;;23.30;66.30;;;;;;5117679;28;20028;-73
2021/06/23 02:04:59;;;;;;;10.98;2.75;;;23.20;66.50;;;;;;5117697;28;20020;-73
2021/06/23 02:07:39;;;;;;;8.82;2.70;;;23.30;66.40;;;;;;5111126;28;20402;-73
2021/06/23 02:10:32;;;;;;;5.90;2.10;;;23.30;66.70;;;;;;5117875;28;20058;-73
2021/06/23 02:13:22;;;;;;;9.25;2.13;;;23.20;66.60;;;;;;5117805;28;20315;-73
2021/06/23 02:15:53;;;;;;;11.70;2.28;;;23.20;66.20;;;;;;5117365;28;20431;-72
2021/06/23 02:18:20;;;;;;;12.77;2.78;;;23.20;66.40;;;;;;5117714;28;20020;-73
2021/06/23 02:20:50;;;;;;;10.13;2.95;;;23.20;66.80;;;;;;5117746;28;20015;-72
2021/06/23 02:23:16;;;;;;;6.70;2.40;;;23.20;66.30;;;;;;5118005;28;20099;-73
2021/06/23 02:25:42;;;;;;;8.75;2.33;;;23.20;66.50;;;;;;5117622;28;20026;-72
2021/06/23 02:28:07;;;;;;;10.75;2.35;;;23.20;66.60;;;;;;5117338;28;20024;-72
2021/06/23 02:30:36;;;;;;;11.30;2.40;;;23.20;66.50;;;;;;5117594;28;20024;-72
2021/06/23 02:33:02;;;;;;;11.73;2.45;;;23.20;66.30;;;;;;5117214;28;20019;-72
2021/06/23 02:35:27;;;;;;;6.93;1.83;;;23.30;66.00;;;;;;5117079;28;20044;-72
2021/06/23 02:37:54;;;;;;;9.07;2.45;;;23.40;66.10;;;;;;5117498;28;20023;-72
2021/06/23 02:40:20;;;;;;;10.05;2.55;;;23.40;66.00;;;;;;5117409;28;20032;-73
2021/06/23 02:42:46;;;;;;;8.32;2.25;;;23.40;65.90;;;;;;5117313;28;20017;-72
2021/06/23 02:45:13;;;;;;;13.15;2.17;;;23.40;65.90;;;;;;5117373;28;20038;-73
2021/06/23 02:47:40;;;;;;;6.05;1.85;;;23.40;65.80;;;;;;5117421;28;20020;-73
2021/06/23 02:50:06;;;;;;;9.45;2.05;;;23.40;65.30;;;;;;5117372;28;20077;-72
2021/06/23 02:52:36;;;;;;;8.73;2.13;;;23.30;65.60;;;;;;5117266;28;20315;-73
2021/06/23 02:55:05;;;;;;;8.30;2.25;;;23.30;66.50;;;;;;5117010;28;20023;-73
2021/06/23 02:57:33;;;;;;;6.68;2.17;;;23.30;67.00;;;;;;5117353;28;20032;-73
2021/06/23 03:00:01;;;;;;;9.50;2.30;;;23.20;67.50;;;;;;5121477;28;20028;-73
2021/06/23 03:02:26;;;;;;;10.10;1.92;;;23.00;68.40;;;;;;5121161;28;20048;-73
2021/06/23 03:04:52;;;;;;;11.65;2.08;;;22.90;69.00;;;;;;5121161;28;20031;-73
2021/06/23 03:07:18;;;;;;;7.43;1.63;;;22.80;69.70;;;;;;5121110;28;20035;-73
2021/06/23 03:09:44;;;;;;;11.40;1.95;;;22.60;70.70;;;;;;5121037;28;20068;-73
2021/06/23 03:12:15;;;;;;;7.88;2.10;;;22.50;71.00;;;;;;5121279;28;20401;-73
2021/06/23 03:14:42;;;;;;;5.35;1.65;;;22.30;72.20;;;;;;5120947;28;20113;-73
2021/06/23 03:17:08;;;;;;;7.30;2.13;;;22.20;71.80;;;;;;5120812;28;20416;-73
2021/06/23 03:19:34;;;;;;;4.75;2.03;;;22.00;72.60;;;;;;5120762;28;20035;-72
2021/06/23 03:22:08;;;;;;;7.28;2.30;;;21.80;73.00;;;;;;5121118;28;20027;-73
2021/06/23 03:24:37;;;;;;;6.72;1.95;;;21.60;73.80;;;;;;5121086;28;20031;-73
2021/06/23 03:27:03;;;;;;;9.35;2.15;;;21.50;74.50;;;;;;5120653;28;20404;-72
2021/06/23 03:29:33;;;;;;;9.07;2.28;;;21.40;74.80;;;;;;5120986;28;20300;-73
2021/06/23 03:31:59;;;;;;;7.60;1.80;;;21.20;75.40;;;;;;5120917;28;20084;-72
2021/06/23 03:34:26;;;;;;;8.52;2.90;;;21.10;76.30;;;;;;5120561;28;20385;-73
2021/06/23 03:36:52;;;;;;;8.20;2.13;;;21.10;76.60;;;;;;5120435;28;20027;-73
2021/06/23 03:39:18;;;;;;;7.95;2.55;;;21.10;75.90;;;;;;5120378;28;20040;-73
2021/06/23 03:41:44;;;;;;;11.52;2.75;;;21.10;76.80;;;;;;5120414;28;20320;-73
2021/06/23 03:44:10;;;;;;;7.55;2.10;;;21.00;76.20;;;;;;5120837;28;20311;-73
2021/06/23 03:46:35;;;;;;;11.75;2.88;;;21.10;77.50;;;;;;5120592;28;20034;-72
2021/06/23 03:49:02;;;;;;;7.78;2.00;;;21.00;77.50;;;;;;5120238;28;20028;-72
2021/06/23 03:51:28;;;;;;;8.15;2.47;;;21.00;76.80;;;;;;5120552;28;20124;-73
2021/06/23 03:53:54;;;;;;;8.73;2.60;;;21.00;77.20;;;;;;5120217;28;20504;-73
2021/06/23 03:56:20;;;;;;;9.93;2.38;;;21.10;77.40;;;;;;5120103;28;20027;-72
2021/06/23 03:58:45;;;;;;;9.80;2.95;;;21.10;77.90;;;;;;5119955;28;20068;-73
2021/06/23 04:01:11;;;;;;;8.75;2.00;;;21.10;78.30;;;;;;5120052;28;20023;-73
2021/06/23 04:03:37;;;;;;;8.30;2.17;;;21.20;78.50;;;;;;5120296;28;20019;-72
2021/06/23 04:06:03;;;;;;;7.57;2.13;;;21.30;76.80;;;;;;5119892;28;20047;-73
2021/06/23 04:08:29;;;;;;;6.13;2.10;;;21.30;75.90;;;;;;5120231;28;20068;-72
2021/06/23 04:10:54;;;;;;;13.63;2.00;;;21.40;76.60;;;;;;5119290;28;20016;-73
2021/06/23 04:13:20;;;;;;;40.58;3.58;;;21.50;75.50;;;;;;5120139;28;20035;-72
2021/06/23 04:15:45;;;;;;;27.85;3.15;;;21.60;74.80;;;;;;5119787;28;20131;-72
2021/06/23 04:18:11;;;;;;;9.57;2.28;;;21.70;73.50;;;;;;5119977;28;20027;-72
2021/06/23 04:20:37;;;;;;;8.95;2.58;;;21.80;74.30;;;;;;5120001;28;20019;-72
2021/06/23 04:23:03;;;;;;;9.23;2.22;;;21.80;74.50;;;;;;5119940;28;20024;-72
2021/06/23 04:25:29;;;;;;;8.02;1.88;;;21.70;74.60;;;;;;5119579;28;20346;-73
2021/06/23 04:27:55;;;;;;;8.82;2.28;;;21.80;75.10;;;;;;5119555;28;20031;-73
2021/06/23 04:30:21;;;;;;;9.57;2.42;;;21.90;75.10;;;;;;5119805;28;20023;-72
2021/06/23 04:32:46;;;;;;;9.52;2.08;;;21.90;75.40;;;;;;5119689;28;20034;-73
2021/06/23 04:35:12;;;;;;;8.07;1.98;;;21.90;76.20;;;;;;5119302;28;20031;-72
2021/06/23 04:37:41;;;;;;;9.65;2.08;;;21.90;77.30;;;;;;5119690;28;20020;-73
2021/06/23 04:40:10;;;;;;;92.68;6.10;;;21.80;77.80;;;;;;5119542;28;20027;-73
2021/06/23 04:42:36;;;;;;;206.02;12.38;;;21.80;78.50;;;;;;5119089;28;20026;-72
2021/06/23 04:45:04;;;;;;;132.02;8.25;;;21.80;78.90;;;;;;5119148;28;20019;-72
2021/06/23 04:47:30;;;;;;;16.33;2.45;;;21.90;79.90;;;;;;5119105;28;20032;-73
2021/06/23 04:49:56;;;;;;;13.27;3.00;;;22.00;80.10;;;;;;5119133;28;20077;-72
2021/06/23 04:52:23;;;;;;;13.00;2.40;;;22.10;78.60;;;;;;5119064;28;20498;-72
2021/06/23 04:54:49;;;;;;;14.18;3.10;;;22.30;77.00;;;;;;5119440;28;20038;-73
2021/06/23 04:57:15;;;;;;;12.32;3.13;;;22.40;76.30;;;;;;5119290;28;20319;-73
2021/06/23 04:59:41;;;;;;;14.77;3.10;;;22.60;75.50;;;;;;5118846;28;20060;-72
2021/06/23 05:02:07;;;;;;;10.63;3.08;;;22.70;74.70;;;;;;5118874;28;20106;-72
2021/06/23 05:04:33;;;;;;;15.75;3.75;;;22.80;73.50;;;;;;5119179;28;20047;-73
2021/06/23 05:07:02;;;;;;;8.40;2.70;;;22.90;74.30;;;;;;5119036;28;20044;-73
2021/06/23 05:09:29;;;;;;;9.88;3.13;;;23.00;74.50;;;;;;5119029;28;20032;-72
2021/06/23 05:11:54;;;;;;;12.98;3.17;;;23.10;73.80;;;;;;5118660;28;20027;-73
2021/06/23 05:14:20;;;;;;;12.90;3.08;;;23.10;73.90;;;;;;5119128;28;20038;-73
2021/06/23 05:16:48;;;;;;;10.48;3.10;;;23.20;72.50;;;;;;5118812;28;20034;-73
2021/06/23 05:19:14;;;;;;;18.42;2.60;;;23.30;73.70;;;;;;5100471;28;20102;-73
2021/06/23 05:21:40;;;;;;;6.72;2.67;;;23.40;72.90;;;;;;5117805;28;20379;-73
2021/06/23 05:24:06;;;;;;;15.05;2.83;;;23.50;72.40;;;;;;5118776;28;20154;-73
2021/06/23 05:26:32;;;;;;;11.02;2.65;;;23.60;72.40;;;;;;5118618;28;20284;-73
2021/06/23 05:28:58;;;;;;;12.35;3.10;;;23.60;72.90;;;;;;5118655;28;20050;-72
2021/06/23 05:31:24;;;;;;;10.35;3.45;;;23.60;72.00;;;;;;5118582;28;20124;-73
2021/06/23 05:33:50;;;;;;;11.05;3.13;;;23.60;71.60;;;;;;5118315;28;20043;-73
2021/06/23 05:36:16;;;;;;;15.27;3.00;;;23.70;71.80;;;;;;5118463;28;20319;-73
2021/06/23 05:38:42;;;;;;;14.02;3.08;;;23.70;71.60;;;;;;5118046;28;20028;-73
2021/06/23 05:41:07;;;;;;;13.15;2.97;;;23.80;72.40;;;;;;5118051;28;20020;-73
2021/06/23 05:43:33;;;;;;;9.07;2.40;;;23.80;71.30;;;;;;5118228;28;20110;-73
2021/06/23 05:45:58;;;;;;;11.75;2.03;;;23.90;70.90;;;;;;5117986;28;20063;-73
2021/06/23 05:48:24;;;;;;;7.63;2.33;;;24.00;69.20;;;;;;5117962;28;20080;-73
2021/06/23 05:50:50;;;;;;;15.57;3.70;;;24.00;68.80;;;;;;5118233;28;20076;-73
2021/06/23 05:53:16;;;;;;;9.07;2.88;;;24.20;68.30;;;;;;5117866;28;20447;-73
2021/06/23 05:55:42;;;;;;;7.28;2.47;;;24.30;69.10;;;;;;5099837;28;20028;-73
2021/06/23 05:58:09;;;;;;;7.28;1.83;;;24.50;67.00;;;;;;5118120;28;20016;-73
2021/06/23 06:00:36;;;;;;;20.05;4.38;;;24.70;65.40;;;;;;5117668;28;20059;-73
2021/06/23 06:03:05;;;;;;;8.77;2.10;;;25.00;66.10;;;;;;5117984;28;20024;-73
2021/06/23 06:05:31;;;;;;;5.53;1.80;;;25.10;64.30;;;;;;5117710;28;20080;-73
2021/06/23 06:07:57;;;;;;;9.45;2.00;;;25.40;64.50;;;;;;5117985;28;20032;-73
2021/06/23 06:10:22;;;;;;;6.22;2.05;;;25.80;63.80;;;;;;5117621;28;20392;-73
2021/06/23 06:12:48;;;;;;;7.72;1.88;;;26.20;62.60;;;;;;5117833;28;20023;-73
2021/06/23 06:15:14;;;;;;;11.45;2.03;;;26.70;62.40;;;;;;5118149;28;20032;-73
2021/06/23 06:17:40;;;;;;;9.52;2.38;;;27.00;61.50;;;;;;5117800;28;20445;-73
2021/06/23 06:20:07;;;;;;;5.63;2.10;;;27.30;60.60;;;;;;5117672;28;20024;-73
2021/06/23 06:22:33;;;;;;;7.90;2.35;;;27.60;61.00;;;;;;5117687;28;20019;-73
2021/06/23 06:24:59;;;;;;;11.32;2.35;;;28.10;60.10;;;;;;5117705;28;20120;-73
2021/06/23 06:27:25;;;;;;;6.72;2.10;;;28.70;57.20;;;;;;5117678;28;20441;-73
2021/06/23 06:29:51;;;;;;;12.57;2.72;;;29.00;56.80;;;;;;5117305;28;20133;-73
2021/06/23 06:32:18;;;;;;;9.23;2.65;;;29.10;57.20;;;;;;5117203;28;20026;-73
2021/06/23 06:34:44;;;;;;;7.55;1.85;;;29.20;56.10;;;;;;5116937;28;20058;-74
2021/06/23 06:37:10;;;;;;;5.65;1.83;;;29.70;56.60;;;;;;5117455;28;20024;-73
2021/06/23 06:39:36;;;;;;;7.00;1.75;;;30.00;54.60;;;;;;5117407;28;20305;-74
2021/06/23 06:42:02;;;;;;;8.07;1.83;;;30.20;54.70;;;;;;5117455;28;20024;-73
2021/06/23 06:44:31;;;;;;;8.23;2.35;;;30.60;54.60;;;;;;5117590;28;20392;-74
2021/06/23 06:46:57;;;;;;;8.18;2.10;;;30.90;54.60;;;;;;5117363;28;20086;-74
2021/06/23 06:49:26;;;;;;;10.00;2.63;;;30.90;53.10;;;;;;5117064;28;20031;-74
2021/06/23 06:51:52;;;;;;;7.78;2.20;;;30.30;55.10;;;;;;5117362;28;20153;-73
2021/06/23 06:54:17;;;;;;;8.82;2.47;;;29.70;59.40;;;;;;5117087;28;20415;-73
2021/06/23 06:56:43;;;;;;;8.10;2.53;;;29.30;62.60;;;;;;5117264;28;20024;-73
2021/06/23 06:59:09;;;;;;;10.27;2.80;;;29.20;63.70;;;;;;5116943;28;20038;-73
2021/06/23 07:01:34;;;;;;;9.73;2.17;;;29.30;62.70;;;;;;5117246;28;20027;-74
2021/06/23 07:04:00;;;;;;;8.32;2.63;;;29.30;63.00;;;;;;5117298;28;20323;-73
2021/06/23 07:06:27;;;;;;;9.38;2.08;;;29.60;62.80;;;;;;5117226;28;20016;-74
2021/06/23 07:08:53;;;;;;;7.07;2.35;;;30.20;62.40;;;;;;5117185;28;20148;-74
2021/06/23 07:11:18;;;;;;;12.98;2.75;;;30.90;59.40;;;;;;5116900;28;20439;-74
2021/06/23 07:13:44;;;;;;;8.07;2.30;;;31.30;60.70;;;;;;5117054;28;20062;-74
2021/06/23 07:16:10;;;;;;;7.35;2.30;;;31.80;59.30;;;;;;5117322;28;20036;-74
2021/06/23 07:18:35;;;;;;;9.40;2.72;;;32.00;58.50;;;;;;5117061;28;20028;-74
2021/06/23 07:21:01;;;;;;;8.05;2.13;;;32.20;55.80;;;;;;5117130;28;20307;-73
2021/06/23 07:23:27;;;;;;;10.07;2.58;;;32.40;55.50;;;;;;5117053;28;20419;-73
2021/06/23 07:25:52;;;;;;;9.52;2.42;;;32.60;57.70;;;;;;5116709;28;20509;-73
2021/06/23 07:28:26;;;;;;;5.97;2.00;;;32.70;55.80;;;;;;5116738;28;20027;-73
2021/06/23 07:30:52;;;;;;;9.50;2.55;;;33.00;56.20;;;;;;5117092;28;20028;-73
2021/06/23 07:33:18;;;;;;;12.23;3.10;;;33.00;53.30;;;;;;5116783;28;20035;-73
2021/06/23 07:38:47;;;;;;;6.47;2.33;;;33.00;54.10;;;;;;5054160;28;20111;-73
2021/06/23 07:41:13;;;;;;;9.82;2.70;;;32.90;53.60;;;;;;5054205;28;20197;-73
2021/06/23 07:43:39;;;;;;;7.40;2.17;;;32.90;54.20;;;;;;5082898;28;20037;-73
2021/06/23 07:46:06;;;;;;;11.90;2.65;;;32.90;55.10;;;;;;5119342;28;20327;-73
2021/06/23 07:48:38;;;;;;;13.00;2.53;;;33.10;53.40;;;;;;5120616;28;20015;-74
2021/06/23 07:51:12;;;;;;;9.02;2.08;;;33.30;51.40;;;;;;5120326;28;20407;-74
2021/06/23 08:10:09;;;;;;;9.40;2.93;;;33.20;53.20;;;;;;5120329;28;20043;-73
2021/06/23 08:12:51;;;;;;;7.13;2.33;;;33.00;54.10;;;;;;5119806;28;20057;-73
2021/06/23 08:15:17;;;;;;;9.57;2.53;;;33.50;53.90;;;;;;5120123;28;20324;-73
2021/06/23 08:17:43;;;;;;;10.20;3.53;;;33.90;51.60;;;;;;5120057;28;20031;-73
2021/06/23 08:20:09;;;;;;;7.40;2.17;;;34.20;51.70;;;;;;5119985;28;20020;-73
2021/06/23 08:22:35;;;;;;;8.65;2.72;;;34.30;52.50;;;;;;5119956;28;20024;-73
2021/06/23 08:25:00;;;;;;;10.45;3.20;;;34.40;52.80;;;;;;5119915;28;20031;-73
2021/06/23 08:27:26;;;;;;;6.97;2.92;;;34.30;51.50;;;;;;5119889;28;20042;-73
2021/06/23 08:29:52;;;;;;;8.43;2.33;;;34.20;51.10;;;;;;5119530;28;20046;-73
2021/06/23 08:32:17;;;;;;;8.13;2.25;;;34.00;50.60;;;;;;5119778;28;20035;-73
2021/06/23 08:34:43;;;;;;;8.52;2.15;;;33.80;50.90;;;;;;5119385;28;20386;-73
2021/06/23 08:37:09;;;;;;;7.47;2.25;;;33.60;53.10;;;;;;5119746;28;20051;-73
2021/06/23 08:39:34;;;;;;;11.68;2.28;;;33.50;53.80;;;;;;5119771;28;20032;-74
2021/06/23 08:42:00;;;;;;;10.57;2.80;;;33.70;53.20;;;;;;5119320;28;20031;-74
2021/06/23 08:44:26;;;;;;;7.40;2.30;;;33.80;53.20;;;;;;5119309;28;20030;-73
2021/06/23 08:46:52;;;;;;;11.20;3.17;;;33.70;51.30;;;;;;5119453;28;20111;-73
2021/06/23 08:49:18;;;;;;;9.32;2.58;;;34.00;53.00;;;;;;5119178;28;20050;-73
2021/06/23 08:51:44;;;;;;;11.85;3.20;;;34.40;53.00;;;;;;5119411;28;20027;-73
2021/06/23 08:54:11;;;;;;;9.75;2.88;;;34.70;53.30;;;;;;5119128;28;20513;-73
2021/06/23 08:56:37;;;;;;;9.05;2.35;;;34.80;52.70;;;;;;5119158;28;20358;-73
2021/06/23 08:59:04;;;;;;;8.75;2.83;;;35.00;52.90;;;;;;5118896;28;20019;-73
2021/06/23 09:01:33;;;;;;;9.90;3.22;;;35.00;53.80;;;;;;5118919;28;20430;-74
2021/06/23 09:04:20;;;;;;;11.93;2.92;;;35.10;53.90;;;;;;5119210;28;20297;-73
2021/06/23 09:06:51;;;;;;;16.92;3.35;;;35.00;53.50;;;;;;5119076;28;20024;-73
2021/06/23 09:09:18;;;;;;;10.50;2.63;;;34.80;52.40;;;;;;5119084;28;20027;-73
2021/06/23 09:11:44;;;;;;;13.35;2.95;;;34.60;53.80;;;;;;5118708;28;20076;-73
2021/06/23 09:14:15;;;;;;;13.38;3.40;;;34.30;53.00;;;;;;5119134;28;20023;-73
2021/06/23 09:17:12;;;;;;;9.00;3.20;;;34.20;54.80;;;;;;5118915;28;20084;-74
2021/06/23 09:19:39;;;;;;;20.35;3.05;;;34.20;54.60;;;;;;5118778;28;20056;-73
2021/06/23 09:22:54;;;;;;;12.93;2.92;;;34.10;52.70;;;;;;5118448;28;20034;-74
2021/06/23 09:25:24;;;;;;;13.02;2.92;;;34.40;53.60;;;;;;5104902;28;20454;-73
2021/06/23 09:27:56;;;;;;;15.27;2.92;;;34.50;53.90;;;;;;5118690;28;20027;-74
2021/06/23 09:30:36;;;;;;;9.82;2.50;;;34.80;54.10;;;;;;5118635;28;20035;-73
2021/06/23 09:33:20;;;;;;;11.05;3.30;;;35.00;54.60;;;;;;5118287;28;20028;-73
2021/06/23 09:35:55;;;;;;;;;;;35.20;52.50;;;;;;5078010;28;20035;-73
2021/06/23 09:38:32;;;;;;;7.75;2.80;;;35.50;52.00;;;;;;5077537;28;19908;-73
2021/06/23 09:41:00;;;;;;;10.05;2.95;;;35.60;51.70;;;;;;5077462;28;20428;-73
2021/06/23 09:43:40;;;;;;;9.55;2.95;;;35.50;52.80;;;;;;5077763;28;20305;-73
2021/06/23 09:46:24;;;;;;;12.05;3.17;;;35.40;54.40;;;;;;5077692;28;20056;-73
2021/06/23 09:49:03;;;;;;;16.73;3.63;;;35.50;55.20;;;;;;5077373;28;20063;-73
2021/06/23 09:51:28;;;;;;;15.43;3.35;;;35.30;52.30;;;;;;5077625;28;20257;-73
2021/06/23 09:54:01;;;;;;;17.48;3.53;;;35.30;49.60;;;;;;5069044;28;20040;-73
2021/06/23 09:56:30;;;;;;;12.25;2.95;;;35.10;52.40;;;;;;5077514;28;20316;-73
2021/06/23 09:58:57;;;;;;;17.15;3.85;;;35.00;52.90;;;;;;5077399;28;20051;-73
2021/06/23 10:01:26;;;;;;;13.93;3.30;;;35.00;51.50;;;;;;5077404;28;20055;-73
2021/06/23 10:03:53;;;;;;;13.77;3.35;;;35.10;53.70;;;;;;5077119;28;20478;-73
2021/06/23 10:06:30;;;;;;;12.00;3.65;;;34.90;52.40;;;;;;5077319;28;20021;-73
2021/06/23 10:09:23;;;;;;;11.18;3.50;;;34.70;53.70;;;;;;5076867;28;20033;-74
2021/06/23 10:12:06;;;;;;;15.68;3.97;;;34.60;51.50;;;;;;5077263;28;20020;-73
2021/06/23 10:14:34;;;;;;;9.75;3.03;;;35.10;51.80;;;;;;5077335;28;20466;-73
2021/06/23 10:17:03;;;;;;;10.25;3.10;;;35.50;52.90;;;;;;5075523;28;20040;-73
2021/06/23 10:19:29;;;;;;;21.42;4.13;;;35.50;52.20;;;;;;5088239;28;20036;-73
2021/06/23 10:21:58;;;;;;;13.73;3.95;;;35.80;50.20;;;;;;5076739;28;20078;-73
2021/06/23 10:24:27;;;;;;;13.68;3.75;;;35.40;50.00;;;;;;5076831;28;20052;-73
2021/06/23 10:26:53;;;;;;;7.40;2.92;;;35.20;50.10;;;;;;5076985;28;20020;-73
2021/06/23 10:29:28;;;;;;;11.77;3.50;;;35.30;54.20;;;;;;5077080;28;20048;-73
2021/06/23 10:31:55;;;;;;;7.90;2.90;;;35.40;50.70;;;;;;5076726;28;20024;-73
2021/06/23 10:34:21;;;;;;;14.18;2.72;;;35.40;52.20;;;;;;5097575;28;20073;-73
2021/06/23 10:36:49;;;;;;;16.65;3.28;;;35.60;52.60;;;;;;5117192;28;20420;-73
2021/06/23 10:39:15;;;;;;;9.95;2.70;;;35.70;49.20;;;;;;5117107;28;20032;-74
2021/06/23 10:41:44;;;;;;;10.05;3.38;;;35.80;53.90;;;;;;5117464;28;20024;-74
2021/06/23 10:44:19;;;;;;;12.52;4.18;;;35.70;50.40;;;;;;5117606;28;20028;-73
2021/06/23 10:46:45;;;;;;;;;;;35.60;49.50;;;;;;5117833;28;20028;-74
2021/06/23 10:49:15;;;;;;;11.23;2.83;;;35.40;50.10;;;;;;5126714;28;20253;-73
2021/06/23 10:51:41;;;;;;;13.40;2.80;;;35.30;50.80;;;;;;5116735;28;20058;-73
2021/06/23 10:54:32;;;;;;;16.55;2.53;;;35.30;50.30;;;;;;5117415;28;20047;-73
2021/06/23 10:56:57;;;;;;;12.77;2.90;;;35.20;54.80;;;;;;5117305;28;20031;-73
2021/06/23 10:59:36;;;;;;;9.93;2.78;;;35.20;52.60;;;;;;5116926;28;20068;-73
2021/06/23 11:02:10;;;;;;;10.55;3.10;;;35.30;52.10;;;;;;5117286;28;20095;-73
2021/06/23 11:04:57;;;;;;;13.10;2.85;;;35.10;51.20;;;;;;5116983;28;20024;-73
2021/06/23 11:07:36;;;;;;;11.48;3.20;;;34.90;50.20;;;;;;5117011;28;20045;-73
2021/06/23 11:10:28;;;;;;;15.52;3.08;;;34.50;51.00;;;;;;5117215;28;20031;-73
2021/06/23 11:13:05;;;;;;;15.13;3.17;;;34.40;52.80;;;;;;5116900;28;20036;-73
2021/06/23 11:15:31;;;;;;;9.65;2.47;;;34.50;48.40;;;;;;5116823;28;20300;-73
2021/06/23 11:18:24;;;;;;;13.32;2.92;;;34.50;51.30;;;;;;5117149;28;20061;-73
2021/06/23 11:20:50;;;;;;;10.15;2.17;;;34.70;51.80;;;;;;5119066;28;20027;-73
2021/06/23 11:23:42;;;;;;;10.48;2.45;;;34.80;51.00;;;;;;5121141;28;20028;-73
2021/06/23 11:26:29;;;;;;;12.30;2.65;;;34.80;52.80;;;;;;5121088;28;20089;-73
2021/06/23 11:29:18;;;;;;;16.95;3.10;;;34.70;51.20;;;;;;5106254;28;20031;-73
2021/06/23 11:32:03;;;;;;;14.57;2.95;;;34.60;49.60;;;;;;5120630;28;20038;-73
2021/06/23 11:34:38;;;;;;;10.77;2.40;;;34.50;50.70;;;;;;5120445;28;20051;-72
2021/06/23 11:37:08;;;;;;;8.98;2.47;;;34.50;50.90;;;;;;5120825;28;20031;-74
2021/06/23 11:39:35;;;;;;;12.20;2.75;;;34.30;50.40;;;;;;5120490;28;20084;-73
2021/06/23 11:42:01;;;;;;;17.02;3.20;;;34.20;51.60;;;;;;5120799;28;20035;-73
2021/06/23 11:44:29;;;;;;;21.23;3.30;;;34.30;48.10;;;;;;5120997;28;20031;-74
2021/06/23 11:46:58;;;;;;;15.63;3.00;;;34.20;52.30;;;;;;5120391;28;20433;-73
2021/06/23 11:49:24;;;;;;;11.70;2.55;;;33.90;50.40;;;;;;5120328;28;20415;-73
2021/06/23 11:51:49;;;;;;;12.57;2.88;;;33.60;53.30;;;;;;5120640;28;20365;-73
2021/06/23 11:54:16;;;;;;;11.23;3.20;;;33.50;51.40;;;;;;5120620;28;20028;-73
2021/06/23 11:56:41;;;;;;;12.02;3.20;;;33.40;49.80;;;;;;5120180;28;20024;-73
2021/06/23 11:59:07;;;;;;;17.95;2.97;;;33.40;51.00;;;;;;5120061;28;20053;-73
2021/06/23 12:01:32;;;;;;;18.08;3.58;;;33.40;54.30;;;;;;5120104;28;20051;-73
2021/06/23 12:04:01;;;;;;;10.88;3.08;;;33.20;50.70;;;;;;5120427;28;20110;-73
2021/06/23 12:06:26;;;;;;;22.17;3.50;;;33.10;52.70;;;;;;5120306;28;20020;-73
2021/06/23 12:08:52;;;;;;;21.48;4.13;;;33.00;51.60;;;;;;5119707;28;20369;-73
2021/06/23 12:11:18;;;;;;;15.30;2.67;;;33.00;49.30;;;;;;5119921;28;20020;-73
2021/06/23 12:13:44;;;;;;;14.15;2.53;;;32.90;55.10;;;;;;5120100;28;20028;-73
2021/06/23 12:16:10;;;;;;;13.90;2.78;;;32.70;55.90;;;;;;5120069;28;20075;-73
2021/06/23 12:18:36;;;;;;;16.98;3.88;;;32.60;54.50;;;;;;5119993;28;20100;-73
2021/06/23 12:21:02;;;;;;;24.17;4.20;;;32.70;56.10;;;;;;5119749;28;20510;-73
2021/06/23 12:23:28;;;;;;;16.33;3.58;;;32.60;49.80;;;;;;5119981;28;20054;-73
2021/06/23 12:25:53;;;;;;;11.52;3.08;;;32.50;54.20;;;;;;5119933;28;20031;-73
2021/06/23 12:28:19;;;;;;;18.33;3.42;;;32.50;53.00;;;;;;5119903;28;20047;-73
2021/06/23 12:30:47;;;;;;;14.02;3.75;;;32.50;54.50;;;;;;5119329;28;20077;-73
2021/06/23 12:33:15;;;;;;;11.20;3.00;;;32.40;57.30;;;;;;5119588;28;20046;-73
2021/06/23 12:35:45;;;;;;;15.60;3.53;;;32.30;56.70;;;;;;5119444;28;20323;-73
2021/06/23 12:38:16;;;;;;;16.92;4.13;;;32.10;55.30;;;;;;5119761;28;20032;-73
2021/06/23 12:40:44;;;;;;;20.83;3.00;;;31.70;51.30;;;;;;5119566;28;20028;-73
2021/06/23 12:43:12;;;;;;;21.75;4.28;;;31.60;52.30;;;;;;5119799;28;20028;-73
2021/06/23 12:45:39;;;;;;;22.77;3.85;;;31.60;54.90;;;;;;5119274;28;20050;-73
2021/06/23 12:48:05;;;;;;;13.15;3.50;;;31.70;57.00;;;;;;5119212;28;20055;-73
2021/06/23 12:50:32;;;;;;;12.18;3.33;;;31.80;56.50;;;;;;5119102;28;20492;-73
2021/06/23 12:52:57;;;;;;;21.25;4.18;;;32.00;58.80;;;;;;5119431;28;20323;-73
2021/06/23 12:55:23;;;;;;;21.42;4.38;;;32.00;55.60;;;;;;5119346;28;20024;-73
2021/06/23 12:57:49;;;;;;;26.02;4.20;;;31.90;54.60;;;;;;5119339;28;20366;-73
2021/06/23 13:00:16;;;;;;;15.80;3.70;;;31.80;58.50;;;;;;5119194;28;20411;-73
2021/06/23 13:02:45;;;;;;;23.20;3.90;;;31.70;52.70;;;;;;5118926;28;20051;-73
2021/06/23 13:05:13;;;;;;;19.35;3.22;;;31.60;55.70;;;;;;5118850;28;20412;-73
2021/06/23 13:07:39;;;;;;;27.98;3.55;;;31.70;56.10;;;;;;5119113;28;20046;-73